»·PEaware :: N2442P KAVX-KSBA

N2442P :: KAVX-KSBA

FLIGHT INFORMATION

Flight Status: Arrived
Operator: Privately registered:
United States
More flights under this callsign
Pilot: Ken Q. (14290)
Aircraft: MOONEY M-20K/M ENCORE BRAVO
(M20T)
More flights by this aircraft type
Origin: KAVX Catalina
United States
Destination: KSBA Santa Barbara Mun
United States
More flights between these airports :: More routes between these airports
Route: KAVX VTU KSBA
File this flight plan on PilotEdge
Remarks: X
Altitude:
(Current/Filed)
4,500ft
Speed:
(Current/Filed)
175kts
Departed: 06-Jan-20 02:34 PM
Arrived: 06-Jan-20 03:16 PM
Distance/Time
Traveled:
0nm/0:42
Distance/Time
To Go:
Arrived

Flight Plot

Page will automatically refresh every two minutes.

Flight plan parsing failed; only flown route is shown


Map Options




Map Legend


Flown Route
Filed Route
Departure Airport
Arrival Airport
Navaid (VOR, NDB)
Fix

Horizontal Profiles

Position Reports

Time Latitude Longitude Heading Altitude Ground
Speed
06-Jan-20 14:06 33.403622 -118.415711 107 1605ft 0kts
06-Jan-20 14:07 33.403622 -118.415711 107 1605ft 0kts
06-Jan-20 14:08 33.403622 -118.415711 107 1605ft 0kts
06-Jan-20 14:09 33.403622 -118.415711 107 1605ft 0kts
06-Jan-20 14:10 33.403622 -118.415711 107 1605ft 0kts
06-Jan-20 14:11 33.403622 -118.415711 107 1605ft 0kts
06-Jan-20 14:12 33.403622 -118.415711 107 1605ft 0kts
06-Jan-20 14:13 33.403622 -118.415711 107 1605ft 0kts
06-Jan-20 14:14 33.403622 -118.415711 107 1605ft 0kts
06-Jan-20 14:15 33.403622 -118.415711 107 1605ft 0kts
06-Jan-20 14:16 33.403622 -118.415711 107 1605ft 0kts
06-Jan-20 14:17 33.403622 -118.415711 107 1605ft 0kts
06-Jan-20 14:18 33.403622 -118.415711 107 1605ft 0kts
06-Jan-20 14:19 33.403622 -118.415711 107 1605ft 0kts
06-Jan-20 14:20 33.403622 -118.415711 107 1605ft 0kts
06-Jan-20 14:21 33.403622 -118.415711 107 1605ft 0kts
06-Jan-20 14:22 33.403622 -118.415711 107 1605ft 0kts
06-Jan-20 14:23 33.403622 -118.415710 107 1605ft 0kts
06-Jan-20 14:24 33.403622 -118.415709 107 1605ft 0kts
06-Jan-20 14:25 33.403621 -118.415708 107 1605ft 0kts
06-Jan-20 14:26 33.403621 -118.415707 107 1605ft 0kts
06-Jan-20 14:27 33.403621 -118.415706 107 1605ft 0kts
06-Jan-20 14:28 33.403550 -118.415687 234 1605ft 1kts
06-Jan-20 14:29 33.402788 -118.418806 235 1605ft 5kts
06-Jan-20 14:30 33.402341 -118.419630 73 1605ft 0kts
06-Jan-20 14:31 33.402344 -118.419619 72 1605ft 0kts
06-Jan-20 14:32 33.402228 -118.419799 299 1605ft 2kts
06-Jan-20 14:33 33.408057 -118.411558 46 1712ft 92kts
06-Jan-20 14:34 33.432066 -118.405748 256 2419ft 151kts
06-Jan-20 14:35 33.430727 -118.401054 287 3477ft 95kts
06-Jan-20 14:36 33.427790 -118.426391 257 4032ft 89kts
06-Jan-20 14:37 33.426994 -118.453278 318 4564ft 95kts
06-Jan-20 14:38 33.446045 -118.493528 297 4504ft 166kts
06-Jan-20 14:39 33.465417 -118.546084 296 4499ft 175kts
06-Jan-20 14:40 33.485385 -118.599927 303 4489ft 174kts
06-Jan-20 14:41 33.521714 -118.635550 328 4487ft 169kts
06-Jan-20 14:42 33.561106 -118.666333 331 4483ft 168kts
06-Jan-20 14:43 33.600803 -118.696011 333 4478ft 168kts
06-Jan-20 14:44 33.641993 -118.722597 335 4475ft 168kts
06-Jan-20 14:45 33.683267 -118.748954 335 4473ft 168kts
06-Jan-20 14:46 33.724521 -118.775310 335 4480ft 167kts
06-Jan-20 14:47 33.765835 -118.801712 335 4478ft 168kts
06-Jan-20 14:48 33.807029 -118.828057 335 4504ft 168kts
06-Jan-20 14:49 33.847916 -118.855745 333 4502ft 169kts
06-Jan-20 14:50 33.888653 -118.884040 333 4504ft 169kts
06-Jan-20 14:51 33.928498 -118.914597 328 4506ft 170kts
06-Jan-20 14:52 33.967377 -118.947550 328 4488ft 171kts
06-Jan-20 14:53 34.002959 -118.977707 327 4488ft 171kts
06-Jan-20 14:54 34.042007 -119.009863 328 4488ft 169kts
06-Jan-20 14:55 34.080946 -119.041835 328 4489ft 169kts
06-Jan-20 14:56 34.112629 -119.069572 313 4496ft 173kts
06-Jan-20 14:57 34.140796 -119.117630 306 4491ft 175kts
06-Jan-20 14:58 34.165641 -119.168641 300 4491ft 175kts
06-Jan-20 14:59 34.188922 -119.220664 300 4495ft 176kts
06-Jan-20 15:00 34.211957 -119.273399 296 4488ft 177kts
06-Jan-20 15:01 34.231807 -119.327800 295 4491ft 176kts
06-Jan-20 15:02 34.251533 -119.382176 294 4485ft 173kts
06-Jan-20 15:03 34.268396 -119.431206 295 4099ft 151kts
06-Jan-20 15:04 34.283727 -119.477967 295 3632ft 148kts
06-Jan-20 15:05 34.299570 -119.521125 304 3156ft 132kts
06-Jan-20 15:06 34.316021 -119.556193 305 2734ft 136kts
06-Jan-20 15:07 34.336186 -119.596419 307 2483ft 134kts
06-Jan-20 15:08 34.355290 -119.632595 310 2500ft 121kts
06-Jan-20 15:09 34.376510 -119.665923 315 2173ft 136kts
06-Jan-20 15:10 34.402099 -119.702660 315 1633ft 144kts
06-Jan-20 15:11 34.425123 -119.736491 304 1118ft 118kts
06-Jan-20 15:12 34.429061 -119.770443 261 948ft 93kts
06-Jan-20 15:13 34.428450 -119.798723 270 658ft 89kts
06-Jan-20 15:15 34.428039 -119.826834 267 184ft 82kts
06-Jan-20 15:16 34.427714 -119.843404 268 13ft 10kts
06-Jan-20 15:17 34.426994 -119.846312 192 13ft 0kts
06-Jan-20 15:18 34.426643 -119.841545 89 13ft 17kts
06-Jan-20 15:19 34.425547 -119.837968 165 13ft 14kts
06-Jan-20 15:20 34.422859 -119.836852 353 13ft 2kts
06-Jan-20 15:21 34.423214 -119.835988 130 13ft 2kts
06-Jan-20 15:22 34.423154 -119.835948 161 13ft 0kts
06-Jan-20 15:23 34.423154 -119.835948 161 13ft 0kts
06-Jan-20 15:24 34.423154 -119.835948 161 13ft 0kts
06-Jan-20 15:25 34.423154 -119.835948 161 13ft 0kts
06-Jan-20 15:26 33.403622 -118.415711 107 1605ft 0kts

Navigation Log

Ident Type
Flight plan parsing failed, navigation log unavailable